Time;durP1;ratioP1;P1;durP2;ratioP2;P2;SDS_P1;SDS_P2;PMS_P1;PMS_P2;Temp;Humidity;BMP_temperature;BMP_pressure;BME280_temperature;BME280_humidity;BME280_pressure;Samples;Min_cycle;Max_cycle;Signal;HPM_P1;HPM_P2
2022/03/31 00:00:42;;;;;;;19.73;15.30;;;9.50;99.90;;;;;;5054610;28;20196;-65
2022/03/31 00:03:10;;;;;;;18.25;15.30;;;9.50;99.90;;;;;;5066241;28;20210;-65
2022/03/31 00:05:37;;;;;;;21.27;16.02;;;9.60;99.90;;;;;;5054697;28;20179;-65
2022/03/31 00:08:08;;;;;;;20.02;16.35;;;9.60;99.90;;;;;;5052971;28;20913;-64
2022/03/31 00:10:40;;;;;;;19.75;15.32;;;9.60;99.90;;;;;;5062851;28;20200;-65
2022/03/31 00:13:11;;;;;;;19.85;14.40;;;9.70;99.90;;;;;;5059050;28;20269;-65
2022/03/31 00:15:37;;;;;;;19.98;15.70;;;9.70;99.90;;;;;;5055819;28;20600;-65
2022/03/31 00:18:05;;;;;;;20.67;16.25;;;9.70;99.90;;;;;;5052414;28;20644;-65
2022/03/31 00:20:31;;;;;;;20.23;15.73;;;9.60;99.90;;;;;;5051410;28;20174;-65
2022/03/31 00:22:57;;;;;;;20.13;14.97;;;9.60;99.90;;;;;;5052453;28;20213;-66
2022/03/31 00:25:23;;;;;;;22.40;16.30;;;9.60;99.90;;;;;;5052807;28;20638;-65
2022/03/31 00:27:50;;;;;;;17.92;14.80;;;9.40;99.90;;;;;;5052438;28;20957;-64
2022/03/31 00:30:15;;;;;;;20.75;15.45;;;9.50;99.90;;;;;;5054221;28;20197;-64
2022/03/31 00:32:41;;;;;;;19.30;15.60;;;9.70;99.90;;;;;;5062554;28;20240;-65
2022/03/31 00:35:10;;;;;;;20.10;15.40;;;9.60;99.90;;;;;;5060870;28;20186;-65
2022/03/31 00:37:36;;;;;;;19.23;14.50;;;9.60;99.90;;;;;;5055785;28;20222;-64
2022/03/31 00:40:02;;;;;;;19.77;15.23;;;9.70;99.90;;;;;;5055233;28;20186;-64
2022/03/31 00:42:28;;;;;;;17.48;13.32;;;9.50;99.90;;;;;;5055542;28;20467;-65
2022/03/31 00:44:54;;;;;;;18.25;12.32;;;9.50;99.90;;;;;;5058422;28;20178;-65
2022/03/31 00:47:20;;;;;;;19.13;13.23;;;9.30;99.90;;;;;;5054561;28;20209;-65
2022/03/31 00:49:46;;;;;;;17.93;13.33;;;9.40;99.90;;;;;;5053951;28;20193;-66
2022/03/31 00:52:12;;;;;;;16.03;13.13;;;9.20;99.90;;;;;;5061157;28;20998;-65
2022/03/31 00:54:40;;;;;;;19.02;13.50;;;9.20;99.90;;;;;;5045037;28;20973;-65
2022/03/31 00:57:08;;;;;;;16.58;13.45;;;9.10;99.90;;;;;;5033671;28;20304;-65
2022/03/31 00:59:33;;;;;;;16.08;12.70;;;8.90;99.90;;;;;;5062044;28;20177;-66
2022/03/31 01:02:01;;;;;;;15.07;12.60;;;9.20;99.90;;;;;;5061313;28;20577;-65
2022/03/31 01:04:28;;;;;;;13.48;12.05;;;9.10;99.90;;;;;;5045378;28;20214;-64
2022/03/31 01:06:54;;;;;;;17.10;12.93;;;8.80;99.90;;;;;;5050282;28;20272;-64
2022/03/31 01:09:20;;;;;;;14.67;11.53;;;9.20;99.90;;;;;;5058600;28;20722;-64
2022/03/31 01:11:46;;;;;;;15.05;12.65;;;9.20;99.90;;;;;;5053018;28;20216;-64
2022/03/31 01:14:12;;;;;;;13.77;12.17;;;9.30;99.90;;;;;;5057479;28;20655;-64
2022/03/31 01:16:37;;;;;;;16.37;12.97;;;8.50;99.90;;;;;;5051788;28;20562;-64
2022/03/31 01:19:05;;;;;;;14.13;11.80;;;9.10;99.90;;;;;;5052385;28;20266;-67
2022/03/31 01:21:35;;;;;;;15.77;13.30;;;9.10;99.90;;;;;;5039436;28;20416;-65
2022/03/31 01:24:02;;;;;;;14.88;12.75;;;9.10;99.90;;;;;;5056756;28;20209;-64
2022/03/31 01:26:27;;;;;;;13.70;12.30;;;9.10;99.90;;;;;;5057195;28;20193;-65
2022/03/31 01:28:53;;;;;;;14.20;12.00;;;9.10;99.90;;;;;;5052742;28;20266;-65
2022/03/31 01:31:20;;;;;;;16.03;12.93;;;9.10;99.90;;;;;;5052560;28;20189;-65
2022/03/31 01:33:45;;;;;;;15.07;13.13;;;9.10;99.90;;;;;;5051832;28;20650;-65
2022/03/31 01:36:11;;;;;;;12.73;10.77;;;9.10;99.90;;;;;;5040413;28;20208;-65
2022/03/31 01:38:36;;;;;;;13.37;11.50;;;9.20;99.90;;;;;;5053660;28;20610;-65
2022/03/31 01:41:03;;;;;;;15.30;12.40;;;9.30;99.90;;;;;;5054199;28;20245;-65
2022/03/31 01:43:29;;;;;;;12.50;11.10;;;9.10;99.90;;;;;;5053876;28;20205;-65
2022/03/31 01:45:55;;;;;;;15.47;13.77;;;8.80;99.90;;;;;;5055714;28;20761;-65
2022/03/31 01:48:20;;;;;;;14.18;12.68;;;9.30;99.90;;;;;;5052145;28;20194;-65
2022/03/31 01:50:46;;;;;;;17.63;12.07;;;9.20;99.90;;;;;;5051748;28;20568;-65
2022/03/31 01:53:14;;;;;;;14.33;11.60;;;9.10;99.90;;;;;;5050340;28;20645;-65
2022/03/31 01:55:40;;;;;;;15.00;12.13;;;9.40;99.90;;;;;;5050746;28;20581;-65
2022/03/31 01:58:06;;;;;;;16.67;12.27;;;9.30;99.90;;;;;;5051077;28;20581;-64
2022/03/31 02:00:32;;;;;;;12.32;10.73;;;8.90;99.90;;;;;;5060034;28;20181;-64
2022/03/31 02:02:59;;;;;;;13.17;11.63;;;9.10;99.90;;;;;;5060316;28;20676;-64
2022/03/31 02:05:25;;;;;;;14.80;11.70;;;8.90;99.90;;;;;;5048924;28;20174;-64
2022/03/31 02:07:57;;;;;;;12.35;11.05;;;9.00;99.90;;;;;;5050731;28;20561;-64
2022/03/31 02:10:26;;;;;;;13.52;10.57;;;9.10;99.90;;;;;;5056609;28;20191;-64
2022/03/31 02:12:53;;;;;;;15.65;12.30;;;8.80;99.90;;;;;;5060375;28;20221;-64
2022/03/31 02:15:20;;;;;;;14.13;11.25;;;8.80;99.90;;;;;;5054901;28;20246;-64
2022/03/31 02:17:46;;;;;;;14.43;11.57;;;9.10;99.90;;;;;;5056301;28;20213;-65
2022/03/31 02:20:12;;;;;;;13.23;11.40;;;8.90;99.90;;;;;;5045032;28;20184;-64
2022/03/31 02:22:39;;;;;;;12.90;11.43;;;8.90;99.90;;;;;;5055789;28;20228;-65
2022/03/31 02:25:08;;;;;;;14.95;11.55;;;8.90;99.90;;;;;;5055150;28;20562;-65
2022/03/31 02:27:37;;;;;;;14.73;11.93;;;8.90;99.90;;;;;;5054156;28;20239;-65
2022/03/31 02:30:05;;;;;;;12.93;10.52;;;9.00;99.90;;;;;;5056480;28;20203;-65
2022/03/31 02:32:31;;;;;;;12.70;11.25;;;9.10;99.90;;;;;;5049435;28;20197;-65
2022/03/31 02:34:57;;;;;;;14.47;11.77;;;9.10;99.90;;;;;;5052823;28;20804;-65
2022/03/31 02:37:23;;;;;;;12.50;10.87;;;8.90;99.90;;;;;;5048630;28;20214;-65
2022/03/31 02:39:48;;;;;;;13.70;12.00;;;8.90;99.90;;;;;;5049739;28;20178;-64
2022/03/31 02:42:14;;;;;;;13.50;11.07;;;8.70;99.90;;;;;;5056068;28;20459;-65
2022/03/31 02:44:40;;;;;;;13.32;10.98;;;9.00;99.90;;;;;;5050151;28;20666;-65
2022/03/31 02:47:06;;;;;;;13.47;10.93;;;8.90;99.90;;;;;;5035554;28;20282;-65
2022/03/31 02:49:32;;;;;;;12.53;10.83;;;8.80;99.90;;;;;;5051062;28;20449;-65
2022/03/31 02:51:58;;;;;;;15.10;12.40;;;8.90;99.90;;;;;;5049440;28;20833;-65
2022/03/31 02:55:24;;;;;;;16.52;12.70;;;8.70;99.90;;;;;;5050530;28;20272;-65
2022/03/31 02:57:18;;;;;;;13.70;11.63;;;8.20;99.90;;;;;;5034392;28;20209;-65
2022/03/31 02:59:45;;;;;;;13.40;12.00;;;8.60;99.90;;;;;;5048711;28;20614;-64
2022/03/31 03:02:11;;;;;;;13.75;12.00;;;8.90;99.90;;;;;;5053733;28;20197;-65
2022/03/31 03:04:36;;;;;;;15.27;12.60;;;8.70;99.90;;;;;;5048260;28;20217;-66
2022/03/31 03:07:02;;;;;;;16.23;12.83;;;8.70;99.90;;;;;;5052213;28;20446;-65
2022/03/31 03:09:28;;;;;;;18.52;14.30;;;8.30;99.90;;;;;;5050684;28;20643;-65
2022/03/31 03:11:53;;;;;;;16.53;13.13;;;8.30;99.90;;;;;;5053493;28;20217;-65
2022/03/31 03:14:19;;;;;;;15.33;13.63;;;8.40;99.90;;;;;;5049996;28;20189;-65
2022/03/31 03:16:45;;;;;;;15.57;13.87;;;8.60;99.90;;;;;;5050703;28;20213;-65
2022/03/31 03:19:10;;;;;;;16.70;13.00;;;8.30;99.90;;;;;;5061319;28;20186;-65
2022/03/31 03:21:36;;;;;;;17.03;13.23;;;8.50;99.90;;;;;;5059768;28;20576;-65
2022/03/31 03:24:03;;;;;;;16.10;14.38;;;8.40;99.90;;;;;;5067050;28;20216;-65
2022/03/31 03:26:30;;;;;;;16.50;14.48;;;8.00;99.90;;;;;;5049479;28;20182;-65
2022/03/31 03:28:55;;;;;;;19.05;14.88;;;8.20;99.90;;;;;;5054861;28;20697;-65
2022/03/31 03:31:21;;;;;;;17.17;14.07;;;7.90;99.90;;;;;;5062366;28;20182;-65
2022/03/31 03:33:47;;;;;;;19.67;14.57;;;8.00;99.90;;;;;;5055349;28;20185;-65
2022/03/31 03:36:19;;;;;;;16.53;14.40;;;8.10;99.90;;;;;;5053090;28;20294;-65
2022/03/31 03:38:45;;;;;;;19.35;15.27;;;8.40;99.90;;;;;;5060191;28;20643;-65
2022/03/31 03:41:12;;;;;;;16.30;14.40;;;7.90;99.90;;;;;;5057862;28;20186;-65
2022/03/31 03:43:39;;;;;;;17.70;14.80;;;8.00;99.90;;;;;;5056364;28;20450;-65
2022/03/31 03:46:05;;;;;;;18.00;14.50;;;8.10;99.90;;;;;;5049270;28;20189;-65
2022/03/31 03:48:31;;;;;;;16.20;14.20;;;7.60;99.90;;;;;;5053555;28;20185;-65
2022/03/31 03:50:57;;;;;;;16.00;14.17;;;7.80;99.90;;;;;;5053266;28;20863;-64
2022/03/31 03:53:22;;;;;;;16.85;14.77;;;8.10;99.90;;;;;;5056138;28;20512;-65
2022/03/31 03:55:49;;;;;;;17.00;15.03;;;8.10;99.90;;;;;;5060529;28;20182;-65
2022/03/31 03:58:14;;;;;;;19.38;15.65;;;8.10;99.90;;;;;;5047096;28;20263;-65
2022/03/31 04:00:40;;;;;;;18.40;15.73;;;8.10;99.90;;;;;;5046276;28;20703;-65
2022/03/31 04:03:07;;;;;;;17.45;14.85;;;7.90;99.90;;;;;;5051495;28;20702;-65
2022/03/31 04:05:32;;;;;;;16.23;14.30;;;7.60;99.90;;;;;;5055485;28;20661;-65
2022/03/31 04:07:58;;;;;;;16.67;14.83;;;8.20;99.90;;;;;;5064448;28;20205;-65
2022/03/31 04:10:23;;;;;;;15.90;13.90;;;7.80;99.90;;;;;;5063120;28;20667;-65
2022/03/31 04:12:49;;;;;;;16.97;14.53;;;7.90;99.90;;;;;;5054701;28;20630;-65
2022/03/31 04:15:15;;;;;;;16.73;14.07;;;8.00;99.90;;;;;;5053450;28;20192;-65
2022/03/31 04:17:42;;;;;;;16.73;14.97;;;8.00;99.90;;;;;;5053982;28;20612;-65
2022/03/31 04:20:09;;;;;;;18.20;16.00;;;8.10;99.90;;;;;;5058648;28;20446;-65
2022/03/31 04:22:37;;;;;;;17.80;13.65;;;7.80;99.90;;;;;;5056357;28;20198;-65
2022/03/31 04:25:04;;;;;;;16.73;14.05;;;7.60;99.90;;;;;;5049322;28;20220;-65
2022/03/31 04:27:30;;;;;;;15.82;14.13;;;8.20;99.90;;;;;;5059325;28;20268;-65
2022/03/31 04:29:55;;;;;;;15.57;13.93;;;8.10;99.90;;;;;;5062974;28;20275;-66
2022/03/31 04:32:21;;;;;;;15.80;13.80;;;7.80;99.90;;;;;;5059708;28;20213;-65
2022/03/31 04:34:47;;;;;;;17.10;14.70;;;8.10;99.90;;;;;;5047327;28;20189;-65
2022/03/31 04:37:12;;;;;;;16.47;13.87;;;7.80;99.90;;;;;;5059005;28;20237;-65
2022/03/31 04:39:38;;;;;;;17.67;15.00;;;7.40;99.90;;;;;;5060998;28;20181;-67
2022/03/31 04:42:05;;;;;;;16.60;14.17;;;7.80;99.90;;;;;;5037550;28;20673;-65
2022/03/31 04:44:30;;;;;;;19.13;14.52;;;8.00;99.90;;;;;;5062020;28;20268;-65
2022/03/31 04:46:56;;;;;;;16.67;14.87;;;8.00;99.90;;;;;;5055298;28;20573;-65
2022/03/31 04:49:22;;;;;;;15.83;14.13;;;8.10;99.90;;;;;;5058675;28;20195;-65
2022/03/31 04:51:47;;;;;;;17.33;15.07;;;8.00;99.90;;;;;;5052190;28;20220;-65
2022/03/31 04:54:13;;;;;;;16.80;15.00;;;7.90;99.90;;;;;;5057695;28;20185;-65
2022/03/31 04:56:39;;;;;;;16.90;15.00;;;7.80;99.90;;;;;;5051278;28;20666;-65
2022/03/31 04:59:05;;;;;;;16.57;14.70;;;7.20;99.90;;;;;;5041378;28;20184;-64
2022/03/31 05:01:30;;;;;;;17.65;15.43;;;7.80;99.90;;;;;;5057729;28;20455;-64
2022/03/31 05:03:56;;;;;;;16.13;14.17;;;7.70;99.90;;;;;;5055257;28;20182;-64
2022/03/31 05:06:22;;;;;;;18.23;15.67;;;7.90;99.90;;;;;;5047150;28;20674;-61
2022/03/31 05:08:47;;;;;;;17.43;14.10;;;7.70;99.90;;;;;;5054534;28;20189;-66
2022/03/31 05:11:13;;;;;;;17.33;15.07;;;7.90;99.90;;;;;;5058947;28;20189;-63
2022/03/31 05:13:39;;;;;;;16.60;13.97;;;7.80;99.90;;;;;;5058559;28;20174;-63
2022/03/31 05:16:05;;;;;;;18.50;15.30;;;7.50;99.90;;;;;;5065243;28;20184;-63
2022/03/31 05:18:31;;;;;;;15.40;13.80;;;7.40;99.90;;;;;;5061532;28;20477;-61
2022/03/31 05:20:57;;;;;;;14.25;12.73;;;7.20;99.90;;;;;;5051742;28;20201;-66
2022/03/31 05:23:22;;;;;;;16.13;14.37;;;7.50;99.90;;;;;;5055594;28;20240;-67
2022/03/31 05:25:49;;;;;;;15.87;13.70;;;7.40;99.90;;;;;;5059810;28;20201;-68
2022/03/31 05:28:15;;;;;;;16.00;13.30;;;7.40;99.90;;;;;;5058756;28;20628;-67
2022/03/31 05:30:42;;;;;;;15.68;12.90;;;7.40;99.90;;;;;;5056778;28;20213;-65
2022/03/31 05:33:08;;;;;;;15.32;12.73;;;7.40;99.90;;;;;;5054034;28;20236;-67
2022/03/31 05:35:34;;;;;;;15.95;14.15;;;7.70;99.90;;;;;;5056038;28;20181;-61
2022/03/31 05:38:01;;;;;;;19.65;14.77;;;7.40;99.90;;;;;;5059882;28;20617;-66
2022/03/31 05:40:26;;;;;;;15.35;13.38;;;7.40;99.90;;;;;;5056763;28;20656;-65
2022/03/31 05:42:55;;;;;;;20.03;13.70;;;7.60;99.90;;;;;;5054718;28;20208;-66
2022/03/31 05:45:20;;;;;;;17.23;13.68;;;7.50;99.90;;;;;;5055635;28;20537;-66
2022/03/31 05:47:46;;;;;;;18.80;14.23;;;7.60;99.90;;;;;;5040526;28;20629;-66
2022/03/31 05:50:13;;;;;;;15.87;13.43;;;7.60;99.90;;;;;;5052680;28;20234;-69
2022/03/31 05:52:38;;;;;;;17.95;13.90;;;8.00;99.90;;;;;;5055878;28;20667;-65
2022/03/31 05:55:09;;;;;;;16.27;13.10;;;8.00;99.90;;;;;;5058935;28;20200;-68
2022/03/31 05:57:35;;;;;;;16.35;14.60;;;7.50;99.90;;;;;;5057436;28;20490;-65
2022/03/31 06:00:03;;;;;;;16.25;13.85;;;7.90;99.90;;;;;;5060973;28;20547;-64
2022/03/31 06:02:29;;;;;;;17.55;14.63;;;7.70;99.90;;;;;;5054158;28;20201;-64
2022/03/31 06:04:54;;;;;;;16.90;14.07;;;7.40;99.90;;;;;;5057117;28;20192;-61
2022/03/31 06:07:20;;;;;;;18.10;15.00;;;7.20;99.90;;;;;;5049514;28;20204;-65
2022/03/31 06:09:46;;;;;;;17.17;14.33;;;7.60;99.90;;;;;;5063141;28;20279;-67
2022/03/31 06:12:11;;;;;;;18.73;15.50;;;7.70;99.90;;;;;;5054966;28;20724;-64
2022/03/31 06:14:37;;;;;;;16.47;14.00;;;8.20;99.90;;;;;;5051851;28;20232;-63
2022/03/31 06:17:02;;;;;;;17.10;14.20;;;7.70;99.90;;;;;;5056276;28;20209;-63
2022/03/31 06:19:28;;;;;;;16.37;13.80;;;7.90;99.90;;;;;;5056193;28;20189;-67
2022/03/31 06:21:54;;;;;;;14.30;12.80;;;7.40;99.90;;;;;;5051210;28;20670;-67
2022/03/31 06:24:19;;;;;;;16.03;13.67;;;7.80;99.90;;;;;;5064498;28;20522;-67
2022/03/31 06:26:45;;;;;;;15.57;13.57;;;8.20;99.90;;;;;;5052444;28;20190;-67
2022/03/31 06:29:13;;;;;;;17.20;13.07;;;8.00;99.90;;;;;;5035483;28;20196;-66
2022/03/31 06:31:38;;;;;;;16.35;14.43;;;8.00;99.90;;;;;;5041466;28;20206;-68
2022/03/31 06:34:05;;;;;;;18.73;14.13;;;8.00;99.90;;;;;;5059059;28;20713;-67
2022/03/31 06:36:31;;;;;;;20.10;16.10;;;8.20;99.90;;;;;;5056062;28;20209;-66
2022/03/31 06:38:57;;;;;;;17.58;15.10;;;7.80;99.90;;;;;;5060340;28;20632;-67
2022/03/31 06:41:23;;;;;;;18.45;15.07;;;7.80;99.90;;;;;;5056665;28;20188;-68
2022/03/31 06:43:49;;;;;;;17.60;15.47;;;7.90;99.90;;;;;;5038264;28;20186;-69
2022/03/31 06:46:17;;;;;;;19.17;15.48;;;8.00;99.90;;;;;;5058206;28;20444;-68
2022/03/31 06:48:46;;;;;;;19.55;14.90;;;8.10;99.90;;;;;;5037586;28;20185;-66
2022/03/31 06:51:14;;;;;;;20.17;15.40;;;7.60;99.90;;;;;;5055798;28;20264;-64
2022/03/31 06:53:40;;;;;;;17.67;15.48;;;7.20;99.90;;;;;;5053576;28;20189;-64
2022/03/31 06:56:07;;;;;;;20.58;15.48;;;7.50;99.90;;;;;;5040730;28;20246;-73
2022/03/31 06:58:34;;;;;;;18.83;15.40;;;8.00;99.90;;;;;;5054932;28;20670;-63
2022/03/31 07:01:00;;;;;;;20.20;15.57;;;7.80;99.90;;;;;;5059031;28;20193;-64
2022/03/31 07:03:26;;;;;;;22.52;16.50;;;7.80;99.90;;;;;;5040104;28;20252;-60
2022/03/31 07:05:53;;;;;;;18.65;14.60;;;7.90;99.90;;;;;;5053657;28;20505;-65
2022/03/31 07:08:19;;;;;;;18.52;15.68;;;7.90;99.90;;;;;;5053902;28;20646;-63
2022/03/31 07:10:44;;;;;;;19.43;15.53;;;8.10;99.90;;;;;;5052143;28;20267;-61
2022/03/31 07:13:10;;;;;;;22.17;14.57;;;7.80;99.90;;;;;;5067326;28;20581;-67
2022/03/31 07:15:36;;;;;;;17.25;14.88;;;8.00;99.90;;;;;;5058314;28;21332;-66
2022/03/31 07:18:03;;;;;;;18.20;15.57;;;8.50;99.90;;;;;;5065185;28;20196;-65
2022/03/31 07:20:30;;;;;;;18.42;15.07;;;8.00;99.90;;;;;;5050231;28;20541;-65
2022/03/31 07:22:56;;;;;;;19.83;15.05;;;8.00;99.90;;;;;;5059504;28;20594;-69
2022/03/31 07:25:22;;;;;;;22.00;18.10;;;8.20;99.90;;;;;;5053571;28;20174;-68
2022/03/31 07:27:49;;;;;;;16.83;14.55;;;8.10;99.90;;;;;;5061656;28;20548;-67
2022/03/31 07:30:16;;;;;;;21.05;15.30;;;8.50;99.90;;;;;;5058154;28;20193;-68
2022/03/31 07:32:59;;;;;;;17.67;14.02;;;8.70;99.90;;;;;;5037976;28;20541;-68
2022/03/31 07:35:29;;;;;;;18.10;15.43;;;8.60;99.90;;;;;;5055071;28;20238;-62
2022/03/31 07:37:56;;;;;;;18.45;13.65;;;8.80;99.90;;;;;;5056754;28;20202;-62
2022/03/31 07:40:23;;;;;;;19.67;13.70;;;9.10;99.90;;;;;;5060994;28;20177;-66
2022/03/31 07:42:49;;;;;;;17.80;14.55;;;8.50;99.90;;;;;;5036143;28;20255;-63
2022/03/31 07:45:16;;;;;;;20.65;13.73;;;8.40;99.90;;;;;;5042018;28;20182;-62
2022/03/31 07:47:43;;;;;;;18.23;15.48;;;8.80;99.90;;;;;;5053946;28;20192;-69
2022/03/31 07:50:10;;;;;;;19.05;15.57;;;8.80;99.90;;;;;;5058172;28;20749;-70
2022/03/31 07:52:40;;;;;;;18.02;14.23;;;8.70;99.90;;;;;;5056623;28;20219;-68
2022/03/31 07:55:09;;;;;;;15.85;14.05;;;8.80;99.90;;;;;;5054456;28;20193;-65
2022/03/31 07:57:35;;;;;;;16.33;13.70;;;9.10;99.90;;;;;;5042340;28;20544;-68
2022/03/31 08:00:01;;;;;;;18.90;14.77;;;9.30;99.90;;;;;;5058146;28;20178;-67
2022/03/31 08:02:26;;;;;;;18.92;14.38;;;9.20;99.90;;;;;;5051606;28;20821;-67
2022/03/31 08:04:52;;;;;;;16.30;14.50;;;9.00;99.90;;;;;;5054980;28;20274;-68
2022/03/31 08:07:18;;;;;;;21.52;13.85;;;9.10;99.90;;;;;;5058493;28;20194;-65
2022/03/31 08:09:44;;;;;;;16.93;14.33;;;8.90;99.90;;;;;;5054120;28;20188;-66
2022/03/31 08:12:10;;;;;;;17.20;14.80;;;9.00;99.90;;;;;;5061330;28;20509;-67
2022/03/31 08:14:36;;;;;;;19.75;15.25;;;8.90;99.90;;;;;;5060919;28;20188;-64
2022/03/31 08:17:02;;;;;;;16.90;14.63;;;9.20;99.90;;;;;;5053083;28;20209;-67
2022/03/31 08:19:30;;;;;;;19.90;15.63;;;8.80;99.90;;;;;;5052991;28;20536;-65
2022/03/31 08:21:56;;;;;;;18.58;15.30;;;8.60;99.90;;;;;;5049596;28;20244;-71
2022/03/31 08:24:22;;;;;;;19.02;16.08;;;8.50;99.90;;;;;;5053326;28;20182;-72
2022/03/31 08:26:50;;;;;;;18.43;15.70;;;8.60;99.90;;;;;;5036810;28;20216;-72
2022/03/31 08:29:16;;;;;;;18.45;15.10;;;8.40;99.90;;;;;;5054069;28;20529;-70
2022/03/31 08:31:42;;;;;;;17.10;13.75;;;8.70;99.90;;;;;;5033755;28;20675;-67
2022/03/31 08:34:08;;;;;;;19.53;15.03;;;9.20;99.90;;;;;;5058973;28;20197;-67
2022/03/31 08:36:34;;;;;;;19.57;15.93;;;8.80;99.90;;;;;;5050686;28;20456;-65
2022/03/31 08:39:00;;;;;;;17.73;15.25;;;9.00;99.90;;;;;;5054538;28;20505;-69
2022/03/31 08:41:28;;;;;;;19.58;15.23;;;9.10;99.90;;;;;;5060984;28;20175;-71
2022/03/31 08:43:55;;;;;;;18.55;15.70;;;9.30;99.90;;;;;;5053503;28;20186;-66
2022/03/31 08:46:22;;;;;;;20.52;17.25;;;8.90;99.90;;;;;;5050697;28;20219;-64
2022/03/31 08:48:48;;;;;;;20.17;16.67;;;9.30;99.90;;;;;;5053632;28;20187;-64
2022/03/31 08:51:14;;;;;;;18.55;15.55;;;8.90;99.90;;;;;;5050308;28;20213;-69
2022/03/31 08:53:40;;;;;;;17.95;15.27;;;9.40;99.90;;;;;;5053635;28;20182;-68
2022/03/31 08:56:06;;;;;;;18.87;15.23;;;9.20;99.90;;;;;;5057106;28;20192;-66
2022/03/31 08:58:31;;;;;;;20.93;17.20;;;9.60;99.90;;;;;;5049184;28;20743;-65
2022/03/31 09:00:57;;;;;;;17.00;14.70;;;9.30;99.90;;;;;;5054145;28;20445;-64
2022/03/31 09:03:33;;;;;;;17.07;14.57;;;9.70;99.90;;;;;;5057291;28;20205;-64
2022/03/31 09:05:59;;;;;;;22.67;16.42;;;10.00;99.90;;;;;;5027883;28;20186;-69
2022/03/31 09:08:24;;;;;;;20.00;15.73;;;9.90;99.90;;;;;;5026469;28;20638;-60
2022/03/31 09:10:55;;;;;;;16.83;14.70;;;10.50;99.90;;;;;;5046894;28;20189;-63
2022/03/31 09:13:34;;;;;;;17.90;15.10;;;10.50;99.90;;;;;;5038187;28;20209;-62
2022/03/31 09:16:10;;;;;;;16.38;14.57;;;10.30;99.90;;;;;;5056555;28;20224;-67
2022/03/31 09:18:38;;;;;;;18.75;15.05;;;10.80;99.90;;;;;;5049697;28;20210;-65
2022/03/31 09:21:06;;;;;;;19.23;15.85;;;10.90;99.90;;;;;;5048340;28;20272;-66
2022/03/31 09:23:43;;;;;;;19.80;15.95;;;10.50;99.90;;;;;;5063505;28;20197;-63
2022/03/31 09:26:12;;;;;;;17.92;16.00;;;10.40;99.90;;;;;;5059698;28;20196;-67
2022/03/31 09:28:39;;;;;;;19.00;16.35;;;10.70;99.90;;;;;;5055984;28;20273;-64
2022/03/31 09:31:08;;;;;;;18.45;15.23;;;10.90;99.90;;;;;;5051020;28;20179;-63
2022/03/31 09:33:41;;;;;;;18.27;15.27;;;11.30;99.90;;;;;;5061903;28;20218;-63
2022/03/31 09:36:12;;;;;;;19.58;17.52;;;11.20;99.90;;;;;;5053819;28;20207;-63
2022/03/31 09:38:43;;;;;;;22.27;19.35;;;11.70;99.90;;;;;;5059184;28;20557;-65
2022/03/31 09:41:17;;;;;;;17.63;15.73;;;12.40;98.80;;;;;;5056599;28;20615;-62
2022/03/31 09:43:44;;;;;;;19.50;15.63;;;12.20;98.40;;;;;;5054994;28;20285;-63
2022/03/31 09:46:24;;;;;;;15.77;14.13;;;12.30;97.80;;;;;;5051392;28;20342;-62
2022/03/31 09:48:50;;;;;;;21.75;15.32;;;12.80;97.30;;;;;;5050603;28;20189;-63
2022/03/31 09:51:21;;;;;;;17.45;14.73;;;12.10;97.00;;;;;;5032621;28;20173;-60
2022/03/31 09:53:50;;;;;;;19.20;14.73;;;12.10;97.40;;;;;;5031907;28;20192;-60
2022/03/31 09:56:21;;;;;;;22.00;16.98;;;12.10;97.80;;;;;;5058672;28;20312;-60
2022/03/31 09:58:48;;;;;;;19.40;15.60;;;12.30;96.90;;;;;;5049275;28;20188;-61
2022/03/31 10:01:18;;;;;;;19.70;14.48;;;12.80;96.40;;;;;;5054096;28;20208;-62
2022/03/31 10:03:44;;;;;;;16.90;14.93;;;12.90;95.80;;;;;;5055301;28;20646;-62
2022/03/31 10:06:12;;;;;;;18.60;15.63;;;13.30;95.40;;;;;;5050266;28;20192;-62
2022/03/31 10:08:40;;;;;;;16.85;15.05;;;13.20;95.10;;;;;;5060208;28;20822;-62
2022/03/31 10:11:07;;;;;;;17.42;15.30;;;13.50;94.70;;;;;;5061374;28;20916;-61
2022/03/31 10:14:00;;;;;;;16.63;14.85;;;13.60;94.80;;;;;;5034957;28;20333;-62
2022/03/31 10:16:36;;;;;;;16.40;14.55;;;13.70;94.20;;;;;;5049026;28;20300;-62
2022/03/31 10:19:03;;;;;;;17.65;15.80;;;13.80;94.10;;;;;;5049248;28;20196;-61
2022/03/31 10:21:30;;;;;;;17.60;15.73;;;14.10;93.60;;;;;;5049258;28;20192;-62
2022/03/31 10:26:41;;;;;;;15.98;14.30;;;14.00;93.10;;;;;;5050555;28;20240;-62
2022/03/31 10:29:14;;;;;;;19.23;14.70;;;13.90;93.20;;;;;;5049924;28;20197;-63
2022/03/31 10:31:45;;;;;;;19.15;15.90;;;13.10;95.10;;;;;;5050287;28;20201;-62
2022/03/31 10:34:14;;;;;;;18.45;15.52;;;13.40;95.10;;;;;;5049911;28;20211;-62
2022/03/31 10:36:47;;;;;;;17.13;15.23;;;13.60;94.80;;;;;;5042755;28;20267;-62
2022/03/31 10:39:23;;;;;;;16.65;14.90;;;13.50;94.60;;;;;;5048877;28;20572;-62
2022/03/31 10:42:03;;;;;;;19.45;17.38;;;13.40;94.30;;;;;;5056794;28;20208;-62
2022/03/31 10:44:29;;;;;;;20.88;16.52;;;12.70;95.30;;;;;;5049919;28;20185;-62
2022/03/31 10:47:11;;;;;;;19.73;16.83;;;12.90;96.10;;;;;;5056857;28;20711;-62
2022/03/31 10:49:37;;;;;;;18.67;15.52;;;12.60;96.40;;;;;;5060095;28;20439;-62
2022/03/31 10:52:16;;;;;;;18.97;16.43;;;12.60;96.30;;;;;;5057351;28;20583;-62
2022/03/31 10:54:42;;;;;;;15.57;13.90;;;12.90;95.70;;;;;;5050050;28;20645;-62
2022/03/31 10:57:13;;;;;;;19.45;15.93;;;13.20;95.70;;;;;;5055102;28;20271;-62
2022/03/31 10:59:40;;;;;;;18.75;15.82;;;12.80;95.20;;;;;;5043744;28;20189;-62
2022/03/31 11:02:10;;;;;;;20.17;17.25;;;13.00;96.20;;;;;;5052223;28;20243;-62
2022/03/31 11:04:44;;;;;;;17.90;16.02;;;13.00;96.00;;;;;;5055181;28;20574;-63
2022/03/31 11:07:17;;;;;;;16.80;14.95;;;12.60;95.90;;;;;;5049329;28;20266;-62
2022/03/31 11:09:43;;;;;;;16.73;14.93;;;12.50;97.10;;;;;;5058585;28;20188;-62
2022/03/31 11:12:21;;;;;;;18.43;16.37;;;12.70;96.80;;;;;;5053468;28;20201;-62
2022/03/31 11:15:02;;;;;;;17.98;15.60;;;12.90;96.90;;;;;;5047198;28;20451;-62
2022/03/31 11:17:29;;;;;;;19.40;15.77;;;12.90;96.80;;;;;;5057329;28;20200;-62
2022/03/31 11:19:59;;;;;;;18.83;16.42;;;13.20;96.50;;;;;;5050854;28;20561;-62
2022/03/31 11:22:27;;;;;;;17.48;14.95;;;13.00;96.20;;;;;;5052524;28;20209;-69
2022/03/31 11:24:54;;;;;;;19.52;15.07;;;13.00;96.50;;;;;;5061851;28;20188;-62
2022/03/31 11:27:36;;;;;;;19.83;16.45;;;12.90;96.90;;;;;;5050219;28;20239;-63
2022/03/31 11:30:07;;;;;;;22.52;17.98;;;12.70;96.80;;;;;;5048612;28;20181;-64
2022/03/31 11:32:34;;;;;;;19.90;16.23;;;12.70;97.20;;;;;;5048561;28;20297;-62
2022/03/31 11:35:00;;;;;;;20.17;16.63;;;12.70;97.60;;;;;;5026661;28;20284;-63
2022/03/31 11:37:26;;;;;;;20.90;17.20;;;12.70;97.90;;;;;;5046619;28;20216;-64
2022/03/31 11:39:52;;;;;;;22.33;16.80;;;12.70;97.40;;;;;;5056389;28;20185;-66
2022/03/31 11:42:18;;;;;;;18.83;16.50;;;13.20;96.90;;;;;;5060035;28;20458;-63
2022/03/31 11:44:44;;;;;;;24.77;16.85;;;13.00;96.90;;;;;;5054075;28;20205;-62
2022/03/31 11:47:21;;;;;;;20.10;16.30;;;12.20;96.60;;;;;;5057047;28;20271;-65
2022/03/31 11:50:05;;;;;;;22.63;17.88;;;12.70;97.40;;;;;;5047747;28;20470;-65
2022/03/31 11:52:32;;;;;;;20.15;16.90;;;12.70;97.00;;;;;;5051208;28;20263;-64
2022/03/31 11:55:00;;;;;;;19.40;16.45;;;12.90;96.80;;;;;;5055945;28;20181;-62
2022/03/31 11:57:27;;;;;;;19.00;15.80;;;12.90;97.10;;;;;;5062184;28;20204;-65
2022/03/31 11:59:54;;;;;;;20.50;17.17;;;12.70;96.90;;;;;;5057607;28;20174;-65
2022/03/31 12:02:20;;;;;;;19.58;16.13;;;12.70;97.40;;;;;;5052616;28;20629;-66
2022/03/31 12:04:47;;;;;;;20.08;16.45;;;12.80;97.60;;;;;;5034388;28;20201;-64
2022/03/31 12:07:13;;;;;;;19.80;16.85;;;12.90;97.10;;;;;;5055554;28;20200;-65
2022/03/31 12:09:41;;;;;;;18.80;16.10;;;12.40;97.90;;;;;;5053285;28;20204;-65
2022/03/31 12:12:14;;;;;;;18.70;14.40;;;12.30;98.00;;;;;;5055952;28;20241;-65
2022/03/31 12:14:51;;;;;;;17.40;15.60;;;12.40;99.00;;;;;;5054247;28;20189;-66
2022/03/31 12:17:18;;;;;;;17.30;14.85;;;12.30;98.90;;;;;;5029332;28;20243;-53
2022/03/31 12:19:44;;;;;;;20.48;15.77;;;12.40;98.30;;;;;;5065561;28;20188;-67
2022/03/31 12:22:09;;;;;;;18.50;15.40;;;13.00;98.10;;;;;;5038314;28;20204;-63
2022/03/31 12:24:52;;;;;;;20.70;16.07;;;12.80;97.20;;;;;;5067310;28;20189;-63
2022/03/31 12:27:19;;;;;;;24.05;16.10;;;13.00;97.20;;;;;;5057519;28;20192;-66
2022/03/31 12:29:56;;;;;;;17.02;14.95;;;13.20;97.20;;;;;;5030698;28;20189;-63
2022/03/31 12:32:21;;;;;;;16.98;15.18;;;12.90;96.80;;;;;;5052869;28;20200;-65
2022/03/31 12:35:01;;;;;;;16.50;14.23;;;13.30;97.20;;;;;;5034470;28;20231;-64
2022/03/31 12:37:31;;;;;;;18.20;15.75;;;13.30;96.90;;;;;;5043576;28;20204;-67